Great Bend, KS

10:51 AM CDT on September 26, 2017 (GMT -0500)
Great Bend Municipal

Weather History for KGBD - March, 2013

Change the Weather History Date:

Friday, March 8, 2013

  Actual Average Record
Temperature  
Mean Temperature 52 °F -  
Max Temperature 64 °F 56 °F 78 °F (1977)
Min Temperature 39 °F 30 °F 1 °F (1967)
Degree Days  
Heating Degree Days 14    
Growing Degree Days 2 (Base 50)    
Moisture  
Dew Point 41 °F    
Average Humidity 68    
Maximum Humidity 88    
Minimum Humidity 53    
Precipitation  
Precipitation 0.00 in - - ()
Sea Level Pressure  
Sea Level Pressure 29.90 in    
Wind  
Wind Speed 19 mph (SSE)    
Max Wind Speed 29 mph    
Max Gust Speed 37 mph    
Visibility 10 miles    
Events      
Averages and records for this station are not official NWS values.
T = Trace of Precipitation, MM = Missing Value Source: NWS Daily Summary

Daily Weather History Graph

Daily Weather History Graph

Search for Another Location

Airport or City:

Trip Planner

Search our weather history database for the weather conditions in past years. The results will help you decide how hot, cold, wet, or windy it might be!

Date:

Astronomy

Mar. 08, 2013 Rise Set
Actual Time 6:56 AM CST 6:36 PM CST
Civil Twilight 6:30 AM CST 7:02 PM CST
Nautical Twilight 5:59 AM CST 7:33 PM CST
Astronomical Twilight 5:29 AM CST 8:03 PM CST
Moon 4:40 AM CST (3/8) 3:34 PM CST (3/8)
Length of Visible Light 12h 32m
Length of Day
11h 39m
Waning Crescent, 11% of the Moon is Illuminated
Mar 8
Waning Crescent
Mar 11
New
Mar 19
First Quarter
Mar 27
Full
Apr 2
Last Quarter

Hourly Weather History & Observations

Time (CST) Temp. Windchill Dew Point Humidity Pressure Visibility Wind Dir Wind Speed Gust Speed Precip Events Conditions
12:15 AM 46.4 °F 40.4 °F 33.8 °F 62% 29.99 in 10.0 mi SSE 13.8 mph - N/A   Clear
12:35 AM 46.4 °F 38.7 °F 32.0 °F 57% 29.99 in 10.0 mi SSE 20.7 mph - N/A   Clear
12:55 AM 46.4 °F 39.2 °F 30.2 °F 53% 30.00 in 10.0 mi SE 18.4 mph - N/A   Clear
1:15 AM 44.6 °F 38.8 °F 30.2 °F 57% 30.00 in 10.0 mi SE 11.5 mph - N/A   Clear
1:35 AM 44.6 °F 38.8 °F 30.2 °F 57% 30.00 in 10.0 mi ESE 11.5 mph - N/A   Clear
1:55 AM 44.6 °F 38.4 °F 30.2 °F 57% 30.00 in 10.0 mi ESE 12.7 mph - N/A   Clear
2:15 AM 44.6 °F 38.4 °F 28.4 °F 53% 29.99 in 10.0 mi ESE 12.7 mph - N/A   Clear
2:35 AM 42.8 °F 36.2 °F 28.4 °F 57% 29.99 in 10.0 mi ESE 12.7 mph - N/A   Clear
2:55 AM 42.8 °F 36.6 °F 28.4 °F 57% 29.98 in 10.0 mi ESE 11.5 mph - N/A   Clear
3:15 AM 41.0 °F 34.3 °F 28.4 °F 61% 29.98 in 10.0 mi ESE 11.5 mph - N/A   Clear
3:35 AM 41.0 °F 33.9 °F 28.4 °F 61% 29.98 in 10.0 mi ESE 12.7 mph - N/A   Clear
3:55 AM 39.2 °F 32.0 °F 28.4 °F 65% 29.97 in 10.0 mi ESE 11.5 mph - N/A   Clear
4:15 AM 41.0 °F 34.3 °F 28.4 °F 61% 29.97 in 10.0 mi ESE 11.5 mph - N/A   Clear
4:35 AM 41.0 °F 33.5 °F 28.4 °F 61% 29.96 in 10.0 mi SE 13.8 mph - N/A   Clear
4:55 AM 41.0 °F 32.5 °F 30.2 °F 65% 29.97 in 10.0 mi SE 17.3 mph - N/A   Clear
5:15 AM 41.0 °F 32.8 °F 30.2 °F 65% 29.97 in 10.0 mi SE 16.1 mph - N/A   Clear
5:35 AM 41.0 °F 32.5 °F 30.2 °F 65% 29.96 in 10.0 mi SE 17.3 mph - N/A   Clear
6:15 AM 41.0 °F 31.9 °F 30.2 °F 65% 29.96 in 10.0 mi SE 19.6 mph - N/A   Clear
6:35 AM 41.0 °F 32.2 °F 30.2 °F 65% 29.96 in 10.0 mi SE 18.4 mph - N/A   Clear
6:55 AM 41.0 °F 31.9 °F 30.2 °F 65% 29.97 in 10.0 mi SE 19.6 mph - N/A   Clear
7:15 AM 42.8 °F 34.0 °F 30.2 °F 61% 29.97 in 10.0 mi SE 20.7 mph 24.2 mph N/A   Clear
7:35 AM 42.8 °F 34.5 °F 30.2 °F 61% 29.96 in 10.0 mi SE 18.4 mph - N/A   Clear
7:55 AM 42.8 °F 34.5 °F 30.2 °F 61% 29.97 in 10.0 mi SSE 18.4 mph 24.2 mph N/A   Clear
8:15 AM 42.8 °F 34.0 °F 30.2 °F 61% 29.98 in 10.0 mi SSE 20.7 mph 25.3 mph N/A   Clear
8:35 AM 44.6 °F 36.4 °F 32.0 °F 61% 29.98 in 10.0 mi SSE 20.7 mph - N/A   Clear
8:55 AM 44.6 °F 36.6 °F 32.0 °F 61% 29.98 in 10.0 mi SSE 19.6 mph - N/A   Clear
9:15 AM 44.6 °F 36.9 °F 33.8 °F 66% 29.98 in 10.0 mi SSE 18.4 mph - N/A   Clear
9:35 AM 46.4 °F 38.7 °F 33.8 °F 62% 29.98 in 10.0 mi SSE 20.7 mph 27.6 mph N/A   Clear
9:55 AM 48.2 °F - 35.6 °F 62% 29.97 in 10.0 mi SSE 23.0 mph 28.8 mph N/A   Clear
10:15 AM 48.2 °F - 35.6 °F 62% 29.98 in 10.0 mi South 19.6 mph 24.2 mph N/A   Clear
10:35 AM 51.8 °F - 37.4 °F 58% 29.99 in 10.0 mi South 19.6 mph - N/A   Clear
11:15 AM 53.6 °F - 39.2 °F 58% 29.96 in 10.0 mi SSE 23.0 mph 29.9 mph N/A   Clear
11:35 AM 53.6 °F - 42.8 °F 67% 29.94 in 10.0 mi South 24.2 mph 32.2 mph N/A   Clear
11:55 AM 57.2 °F - 44.6 °F 63% 29.94 in 10.0 mi SSE 28.8 mph 32.2 mph N/A   Clear
12:15 PM 55.4 °F - 42.8 °F 63% 29.94 in 10.0 mi SSE 25.3 mph - N/A   Partly Cloudy
12:35 PM 57.2 °F - 44.6 °F 63% 29.92 in 10.0 mi SSE 24.2 mph 27.6 mph N/A   Partly Cloudy
12:55 PM 60.8 °F - 46.4 °F 59% 29.91 in 10.0 mi South 26.5 mph 33.4 mph N/A   Mostly Cloudy
1:15 PM 62.6 °F - 48.2 °F 59% 29.90 in 10.0 mi South 27.6 mph 33.4 mph N/A   Scattered Clouds
1:35 PM 62.6 °F - 48.2 °F 59% 29.88 in 10.0 mi South 26.5 mph 32.2 mph N/A   Partly Cloudy
1:55 PM 64.4 °F - 50.0 °F 59% 29.85 in 10.0 mi South 27.6 mph 33.4 mph N/A   Clear
2:15 PM 64.4 °F - 48.2 °F 56% 29.85 in 10.0 mi South 26.5 mph 36.8 mph N/A   Clear
2:35 PM 60.8 °F - 48.2 °F 63% 29.85 in 10.0 mi South 27.6 mph 35.7 mph N/A   Mostly Cloudy
2:55 PM 62.6 °F - 50.0 °F 63% 29.85 in 10.0 mi South 24.2 mph 31.1 mph N/A   Mostly Cloudy
3:15 PM 62.6 °F - 50.0 °F 63% 29.84 in 10.0 mi SSE 23.0 mph 33.4 mph N/A   Scattered Clouds
3:35 PM 60.8 °F - 50.0 °F 68% 29.83 in 10.0 mi SSE 27.6 mph 33.4 mph N/A   Scattered Clouds
3:55 PM 59.0 °F - 50.0 °F 72% 29.83 in 10.0 mi SSE 25.3 mph 33.4 mph N/A   Mostly Cloudy
4:15 PM 57.2 °F - 48.2 °F 72% 29.82 in 10.0 mi SSE 25.3 mph 34.5 mph N/A   Overcast
4:35 PM 57.2 °F - 50.0 °F 77% 29.83 in 10.0 mi South 25.3 mph 33.4 mph N/A   Overcast
4:55 PM 57.2 °F - 50.0 °F 77% 29.83 in 10.0 mi South 23.0 mph 31.1 mph N/A   Overcast
5:15 PM 57.2 °F - 50.0 °F 77% 29.83 in 10.0 mi South 24.2 mph 32.2 mph N/A   Overcast
5:35 PM 57.2 °F - 51.8 °F 82% 29.82 in 10.0 mi SSE 23.0 mph - N/A   Overcast
5:55 PM 57.2 °F - 51.8 °F 82% 29.83 in 10.0 mi SSE 18.4 mph 23.0 mph N/A   Overcast
6:15 PM 57.2 °F - 51.8 °F 82% 29.82 in 10.0 mi SSE 27.6 mph 34.5 mph N/A   Overcast
6:35 PM 57.2 °F - 50.0 °F 77% 29.81 in 10.0 mi SSE 23.0 mph - N/A   Overcast
6:55 PM 57.2 °F - 50.0 °F 77% 29.81 in 10.0 mi SSE 24.2 mph 29.9 mph N/A   Overcast
7:15 PM 57.2 °F - 50.0 °F 77% 29.81 in 10.0 mi SSE 21.9 mph 28.8 mph N/A   Overcast
7:35 PM 57.2 °F - 50.0 °F 77% 29.81 in 10.0 mi SSE 24.2 mph 28.8 mph N/A   Overcast
7:55 PM 55.4 °F - 50.0 °F 82% 29.82 in 10.0 mi SSE 23.0 mph 27.6 mph N/A   Overcast
8:15 PM 55.4 °F - 48.2 °F 77% 29.81 in 10.0 mi SSE 21.9 mph 31.1 mph N/A   Overcast
8:35 PM 55.4 °F - 48.2 °F 77% 29.81 in 10.0 mi SSE 23.0 mph 28.8 mph N/A   Overcast
8:55 PM 55.4 °F - 48.2 °F 77% 29.80 in 10.0 mi SSE 23.0 mph 29.9 mph N/A   Overcast
9:15 PM 55.4 °F - 48.2 °F 77% 29.80 in 10.0 mi SSE 24.2 mph 29.9 mph N/A   Overcast
9:35 PM 53.6 °F - 48.2 °F 82% 29.80 in 8.0 mi SSE 28.8 mph - N/A   Overcast
9:55 PM 53.6 °F - 48.2 °F 82% 29.80 in 8.0 mi SSE 23.0 mph 29.9 mph N/A   Overcast
10:15 PM 53.6 °F - 48.2 °F 82% 29.80 in 7.0 mi South 21.9 mph 32.2 mph N/A   Overcast
10:35 PM 53.6 °F - 48.2 °F 82% 29.79 in 5.0 mi SSE 21.9 mph 28.8 mph N/A   Overcast
10:55 PM 53.6 °F - 48.2 °F 82% 29.79 in 5.0 mi SSE 23.0 mph 31.1 mph N/A   Overcast
11:15 PM 51.8 °F - 48.2 °F 88% 29.80 in 5.0 mi SSE 23.0 mph 27.6 mph N/A   Overcast
11:35 PM 53.6 °F - 48.2 °F 82% 29.81 in 4.0 mi South 26.5 mph 32.2 mph N/A   Overcast
11:55 PM 53.6 °F - 48.2 °F 82% 29.79 in 1.8 mi South 24.2 mph 32.2 mph N/A   Overcast